createdAt,value
2022-11-28T00:00:09.610Z,90.40
2022-11-28T00:02:42.669Z,90.20
2022-11-28T00:05:14.575Z,90.20
2022-11-28T00:07:46.324Z,90.00
2022-11-28T00:10:18.040Z,89.90
2022-11-28T00:12:49.683Z,89.80
2022-11-28T00:15:21.388Z,89.80
2022-11-28T00:17:54.326Z,89.70
2022-11-28T00:20:25.939Z,89.70
2022-11-28T00:22:57.572Z,89.60
2022-11-28T00:25:29.186Z,89.60
2022-11-28T00:28:00.799Z,89.60
2022-11-28T00:30:35.730Z,89.60
2022-11-28T00:33:08.745Z,89.70
2022-11-28T00:35:40.370Z,89.80
2022-11-28T00:38:11.999Z,90.00
2022-11-28T00:40:43.592Z,90.00
2022-11-28T00:43:15.585Z,88.90
2022-11-28T00:45:47.228Z,88.80
2022-11-28T00:48:20.775Z,89.10
2022-11-28T00:50:52.589Z,89.60
2022-11-28T00:53:24.205Z,90.00
2022-11-28T00:55:55.806Z,90.30
2022-11-28T00:58:27.397Z,90.60
2022-11-28T01:00:59.256Z,90.90
2022-11-28T01:03:32.338Z,91.20
2022-11-28T01:06:04.005Z,91.50
2022-11-28T01:08:35.694Z,91.70
2022-11-28T01:11:12.022Z,92.10
2022-11-28T01:13:43.630Z,92.50
2022-11-28T01:16:15.479Z,92.90
2022-11-28T01:18:48.473Z,93.30
2022-11-28T01:21:20.518Z,93.60
2022-11-28T01:23:52.157Z,94.00
2022-11-28T01:26:24.803Z,94.50
2022-11-28T01:28:56.950Z,94.90
2022-11-28T01:31:29.950Z,95.30
2022-11-28T01:34:02.961Z,95.60
2022-11-28T01:36:34.551Z,96.00
2022-11-28T01:39:06.270Z,96.30
2022-11-28T01:41:37.957Z,96.70
2022-11-28T01:44:24.436Z,97.00
2022-11-28T01:46:56.314Z,97.40
2022-11-28T01:49:31.472Z,97.80
2022-11-28T01:52:05.518Z,98.10
2022-11-28T01:54:37.630Z,98.40
2022-11-28T01:57:11.083Z,98.70
2022-11-28T01:59:44.598Z,99.00
2022-11-28T02:02:18.842Z,99.20
2022-11-28T02:04:52.220Z,99.30
2022-11-28T02:07:23.852Z,99.50
2022-11-28T02:09:55.642Z,99.60
2022-11-28T02:12:34.936Z,99.80
2022-11-28T02:15:17.393Z,99.90
2022-11-28T02:17:55.673Z,99.90
2022-11-28T02:20:45.228Z,99.90
2022-11-28T02:23:20.602Z,99.90
2022-11-28T02:26:11.029Z,99.90
2022-11-28T02:28:57.517Z,99.90
2022-11-28T02:31:38.669Z,99.90
2022-11-28T02:34:14.169Z,99.90
2022-11-28T02:36:50.299Z,99.90
2022-11-28T02:39:30.583Z,99.90
2022-11-28T02:42:04.190Z,99.90
2022-11-28T02:44:42.308Z,99.90
2022-11-28T02:47:17.760Z,99.90
2022-11-28T02:49:54.395Z,99.90
2022-11-28T02:52:28.708Z,99.90
2022-11-28T02:55:00.623Z,99.90
2022-11-28T02:57:34.879Z,99.90
2022-11-28T03:00:21.371Z,99.90
2022-11-28T03:02:56.907Z,99.90
2022-11-28T03:05:35.513Z,99.90
2022-11-28T03:08:13.490Z,99.90
2022-11-28T03:10:49.623Z,99.90
2022-11-28T03:13:22.649Z,99.90
2022-11-28T03:15:58.947Z,99.90
2022-11-28T03:18:33.954Z,99.90
2022-11-28T03:21:10.086Z,99.90
2022-11-28T03:23:43.601Z,99.90
2022-11-28T03:26:17.921Z,99.90
2022-11-28T03:28:51.606Z,99.90
2022-11-28T03:31:25.953Z,99.90
2022-11-28T03:33:59.065Z,99.90
2022-11-28T03:36:34.484Z,99.90
2022-11-28T03:39:08.591Z,99.90
2022-11-28T03:41:42.598Z,99.90
2022-11-28T03:44:16.969Z,99.90
2022-11-28T03:46:50.231Z,99.90
2022-11-28T03:49:25.443Z,99.90
2022-11-28T03:52:00.647Z,99.90
2022-11-28T03:54:34.443Z,99.90
2022-11-28T03:57:08.686Z,99.90
2022-11-28T03:59:41.916Z,99.90
2022-11-28T04:02:15.170Z,99.90
2022-11-28T04:04:50.733Z,99.90
2022-11-28T04:07:27.223Z,99.90
2022-11-28T04:10:01.202Z,99.90
2022-11-28T04:12:37.259Z,99.90
2022-11-28T04:15:12.009Z,99.90
2022-11-28T04:17:46.871Z,99.90
2022-11-28T04:20:20.815Z,99.90
2022-11-28T04:22:55.522Z,99.90
2022-11-28T04:25:28.570Z,99.90
2022-11-28T04:28:02.239Z,99.90
2022-11-28T04:30:34.203Z,99.90
2022-11-28T04:33:06.837Z,99.90
2022-11-28T04:35:41.371Z,99.90
2022-11-28T04:38:14.395Z,99.90
2022-11-28T04:40:48.363Z,99.90
2022-11-28T04:43:21.802Z,99.90
2022-11-28T04:45:54.673Z,99.90
2022-11-28T04:48:31.197Z,99.90
2022-11-28T04:51:10.876Z,99.90
2022-11-28T04:53:47.792Z,99.90
2022-11-28T04:56:20.942Z,99.90
2022-11-28T04:58:52.588Z,99.90
2022-11-28T05:01:25.752Z,99.90
2022-11-28T05:03:57.445Z,99.90
2022-11-28T05:06:30.024Z,99.90
2022-11-28T05:09:03.481Z,99.90
2022-11-28T05:11:35.214Z,99.90
2022-11-28T05:14:06.852Z,99.90
2022-11-28T05:16:38.499Z,99.90
2022-11-28T05:19:10.154Z,99.90
2022-11-28T05:21:41.920Z,99.90
2022-11-28T05:24:14.869Z,99.90
2022-11-28T05:26:46.702Z,99.90
2022-11-28T05:29:18.288Z,99.90
2022-11-28T05:31:50.024Z,99.90
2022-11-28T05:34:21.681Z,99.90
2022-11-28T05:36:53.305Z,99.90
2022-11-28T05:39:26.931Z,99.90
2022-11-28T05:41:58.877Z,99.90
2022-11-28T05:44:30.495Z,99.90
2022-11-28T05:47:02.102Z,99.90
2022-11-28T05:49:33.841Z,99.90
2022-11-28T05:52:05.585Z,99.90
2022-11-28T05:54:38.513Z,99.90
2022-11-28T05:57:10.141Z,99.90
2022-11-28T05:59:41.921Z,99.90
2022-11-28T06:02:13.761Z,99.90
2022-11-28T06:04:45.456Z,99.90
2022-11-28T06:07:18.715Z,99.90
2022-11-28T06:09:51.738Z,99.90
2022-11-28T06:12:23.381Z,99.90
2022-11-28T06:14:54.945Z,99.90
2022-11-28T06:17:26.548Z,99.90
2022-11-28T06:19:58.182Z,99.90
2022-11-28T06:22:29.794Z,99.90
2022-11-28T06:25:02.916Z,99.90
2022-11-28T06:27:34.565Z,99.90
2022-11-28T06:30:06.881Z,99.90
2022-11-28T06:32:38.695Z,99.90
2022-11-28T06:35:10.357Z,99.90
2022-11-28T06:37:42.005Z,99.90
2022-11-28T06:40:15.237Z,99.90
2022-11-28T06:42:50.306Z,99.90
2022-11-28T06:45:21.921Z,99.90
2022-11-28T06:47:53.565Z,99.90
2022-11-28T06:50:25.333Z,99.90
2022-11-28T06:52:57.034Z,99.90
2022-11-28T06:55:30.732Z,99.90
2022-11-28T06:58:02.373Z,99.90
2022-11-28T07:00:33.984Z,99.90
2022-11-28T07:03:05.581Z,99.90
2022-11-28T07:05:37.217Z,99.90
2022-11-28T07:08:09.949Z,99.90
2022-11-28T07:10:42.989Z,99.90
2022-11-28T07:13:14.605Z,99.90
2022-11-28T07:15:48.213Z,99.90
2022-11-28T07:18:19.850Z,99.90
2022-11-28T07:20:51.457Z,99.90
2022-11-28T07:23:25.482Z,99.90
2022-11-28T07:26:02.089Z,99.90
2022-11-28T07:28:34.614Z,99.90
2022-11-28T07:31:07.483Z,99.90
2022-11-28T07:33:39.643Z,99.90
2022-11-28T07:36:12.354Z,99.90
2022-11-28T07:38:46.230Z,99.90
2022-11-28T07:41:23.616Z,99.90
2022-11-28T07:43:58.973Z,99.90
2022-11-28T07:46:31.291Z,99.90
2022-11-28T07:49:04.544Z,99.90
2022-11-28T07:51:36.651Z,99.90
2022-11-28T07:54:08.656Z,99.90
2022-11-28T07:59:33.229Z,99.90
2022-11-28T08:02:04.930Z,99.90
2022-11-28T08:04:36.616Z,99.90
2022-11-28T08:07:08.326Z,99.90
2022-11-28T08:09:40.158Z,99.90
2022-11-28T08:12:13.377Z,99.90
2022-11-28T08:14:45.318Z,99.90
2022-11-28T08:17:17.051Z,99.90
2022-11-28T08:19:48.637Z,99.90
2022-11-28T08:22:20.315Z,99.90
2022-11-28T08:24:51.919Z,99.90
2022-11-28T08:27:24.913Z,99.90
2022-11-28T08:29:56.510Z,99.90
2022-11-28T08:32:28.834Z,99.90
2022-11-28T08:35:00.487Z,99.90
2022-11-28T08:37:34.894Z,99.90
2022-11-28T08:40:07.145Z,99.90
2022-11-28T08:42:40.210Z,99.90
2022-11-28T08:45:11.998Z,99.90
2022-11-28T08:47:43.891Z,99.90
2022-11-28T08:50:15.597Z,99.90
2022-11-28T08:52:47.222Z,99.90
2022-11-28T08:55:22.245Z,99.90
2022-11-28T08:57:58.243Z,99.90
2022-11-28T09:00:29.954Z,99.90
2022-11-28T09:03:02.704Z,99.90
2022-11-28T09:05:34.605Z,99.90
2022-11-28T09:08:10.253Z,99.90
2022-11-28T09:10:44.117Z,99.90
2022-11-28T09:13:17.206Z,99.90
2022-11-28T09:15:52.518Z,99.90
2022-11-28T09:18:27.021Z,99.90
2022-11-28T09:20:59.084Z,99.90
2022-11-28T09:23:30.753Z,99.90
2022-11-28T09:26:07.415Z,99.90
2022-11-28T09:28:40.456Z,99.90
2022-11-28T09:31:12.613Z,99.90
2022-11-28T09:33:44.352Z,99.90
2022-11-28T09:36:16.835Z,99.90
2022-11-28T09:38:48.648Z,99.90
2022-11-28T09:41:28.771Z,99.90
2022-11-28T09:44:06.287Z,99.90
2022-11-28T09:46:38.320Z,99.90
2022-11-28T09:49:17.720Z,99.90
2022-11-28T09:51:52.324Z,99.90
2022-11-28T09:54:29.445Z,99.90
2022-11-28T09:57:01.986Z,99.90
2022-11-28T09:59:35.651Z,99.90
2022-11-28T10:02:16.979Z,99.90
2022-11-28T10:04:52.713Z,99.90
2022-11-28T10:07:29.739Z,99.90
2022-11-28T10:10:08.778Z,99.90
2022-11-28T10:12:43.395Z,99.90
2022-11-28T10:15:22.714Z,99.90
2022-11-28T10:17:59.542Z,99.90
2022-11-28T10:20:32.202Z,99.90
2022-11-28T10:23:07.418Z,99.90
2022-11-28T10:25:40.401Z,99.90
2022-11-28T10:28:14.646Z,99.90
2022-11-28T10:30:50.868Z,99.90
2022-11-28T10:33:24.949Z,99.90
2022-11-28T10:35:57.932Z,99.90
2022-11-28T10:38:31.618Z,99.90
2022-11-28T10:41:12.377Z,99.90
2022-11-28T10:43:47.129Z,99.90
2022-11-28T10:46:29.982Z,99.90
2022-11-28T10:49:05.453Z,99.90
2022-11-28T10:51:43.279Z,99.90
2022-11-28T10:54:23.325Z,99.90
2022-11-28T10:56:59.059Z,99.90
2022-11-28T10:59:36.490Z,99.90
2022-11-28T11:02:18.934Z,99.90
2022-11-28T11:04:50.603Z,99.90
2022-11-28T11:07:29.150Z,99.90
2022-11-28T11:10:06.291Z,99.90
2022-11-28T11:12:37.983Z,99.90
2022-11-28T11:15:20.946Z,99.90
2022-11-28T11:17:53.945Z,99.90
2022-11-28T11:20:28.074Z,99.90
2022-11-28T11:23:00.592Z,99.90
2022-11-28T11:25:32.714Z,99.90
2022-11-28T11:28:04.778Z,99.90
2022-11-28T11:30:44.677Z,99.90
2022-11-28T11:33:17.851Z,99.90
2022-11-28T11:35:49.588Z,99.90
2022-11-28T11:38:27.217Z,99.90
2022-11-28T11:41:14.832Z,99.90
2022-11-28T11:43:46.446Z,99.90
2022-11-28T11:46:18.125Z,99.90
2022-11-28T11:48:52.577Z,99.90
2022-11-28T11:51:25.126Z,99.90
2022-11-28T11:54:00.385Z,99.90
2022-11-28T11:56:36.603Z,99.90
2022-11-28T11:59:12.106Z,99.90
2022-11-28T12:01:45.564Z,99.90
2022-11-28T12:04:44.483Z,99.90
2022-11-28T12:07:18.919Z,99.90
2022-11-28T12:09:54.429Z,99.90
2022-11-28T12:12:29.144Z,99.90
2022-11-28T12:15:00.743Z,99.90
2022-11-28T12:20:46.787Z,99.90
2022-11-28T12:23:29.049Z,99.90
2022-11-28T12:26:03.154Z,99.90
2022-11-28T12:28:41.806Z,99.90
2022-11-28T12:31:18.344Z,99.90
2022-11-28T12:33:55.728Z,99.90
2022-11-28T12:36:29.836Z,99.90
2022-11-28T12:39:18.377Z,99.90
2022-11-28T12:42:01.060Z,99.90
2022-11-28T12:44:41.671Z,99.90
2022-11-28T12:47:17.763Z,99.90
2022-11-28T12:49:54.087Z,99.90
2022-11-28T12:52:31.780Z,99.90
2022-11-28T12:55:18.659Z,99.90
2022-11-28T12:57:57.189Z,99.90
2022-11-28T13:00:28.996Z,99.90
2022-11-28T13:21:59.981Z,99.90
2022-11-28T13:24:36.768Z,99.90
2022-11-28T13:27:13.373Z,99.90
2022-11-28T13:29:49.704Z,99.90
2022-11-28T13:32:25.070Z,99.90
2022-11-28T13:34:56.883Z,99.90
2022-11-28T13:40:27.768Z,99.90
2022-11-28T13:54:26.406Z,99.90
2022-11-28T13:57:08.314Z,99.90
2022-11-28T13:59:39.943Z,99.90
2022-11-28T14:02:20.048Z,99.90
2022-11-28T14:04:51.853Z,99.90
2022-11-28T14:07:26.643Z,99.90
2022-11-28T14:10:13.208Z,99.90
2022-11-28T14:12:51.387Z,99.90
2022-11-28T14:15:27.566Z,99.90
2022-11-28T14:18:31.472Z,99.90
2022-11-28T14:21:05.258Z,99.90
2022-11-28T14:23:41.298Z,99.90
2022-11-28T14:26:14.429Z,99.90
2022-11-28T14:28:48.502Z,99.90
2022-11-28T14:31:24.654Z,99.90
2022-11-28T14:33:59.680Z,99.90
2022-11-28T14:36:34.168Z,99.90
2022-11-28T14:39:12.160Z,99.90
2022-11-28T14:42:02.502Z,99.90
2022-11-28T14:44:50.579Z,99.90
2022-11-28T14:47:32.003Z,99.90
2022-11-28T14:50:22.125Z,99.90
2022-11-28T14:53:13.838Z,99.90
2022-11-28T14:55:45.530Z,99.90
2022-11-28T14:58:17.509Z,99.90
2022-11-28T15:00:53.329Z,99.90
2022-11-28T15:03:30.733Z,99.90
2022-11-28T15:06:07.670Z,99.90
2022-11-28T15:08:47.782Z,99.90
2022-11-28T15:14:08.697Z,99.90
2022-11-28T15:16:49.610Z,99.90
2022-11-28T15:19:24.064Z,99.90
2022-11-28T15:27:51.069Z,99.90
2022-11-28T15:30:26.648Z,99.90
2022-11-28T15:33:00.219Z,99.90
2022-11-28T15:35:32.392Z,99.90
2022-11-28T15:38:04.695Z,99.90
2022-11-28T15:40:38.171Z,99.90
2022-11-28T15:43:13.981Z,99.90
2022-11-28T15:45:49.748Z,99.90
2022-11-28T15:48:39.439Z,99.90
2022-11-28T15:51:23.603Z,99.90
2022-11-28T15:53:56.788Z,99.90
2022-11-28T15:56:30.449Z,99.90
2022-11-28T15:59:03.540Z,99.90
2022-11-28T16:18:13.120Z,99.90
2022-11-28T16:20:45.158Z,99.90
2022-11-28T16:23:18.273Z,99.90
2022-11-28T16:25:58.311Z,99.90
2022-11-28T16:28:31.481Z,99.90
2022-11-28T16:31:10.784Z,99.90
2022-11-28T16:33:44.791Z,99.90
2022-11-28T16:36:20.556Z,99.90
2022-11-28T16:38:53.123Z,99.90
2022-11-28T16:46:49.693Z,99.90
2022-11-28T16:49:34.751Z,99.90
2022-11-28T16:52:25.169Z,99.90
2022-11-28T16:54:56.973Z,99.90
2022-11-28T16:57:44.076Z,99.90
2022-11-28T17:00:15.890Z,99.90
2022-11-28T17:02:50.871Z,99.90
2022-11-28T17:05:24.005Z,99.90
2022-11-28T17:07:55.813Z,99.90
2022-11-28T17:10:27.471Z,99.90
2022-11-28T17:12:59.254Z,99.90
2022-11-28T17:15:30.834Z,99.90
2022-11-28T17:18:02.441Z,99.90
2022-11-28T17:20:35.548Z,99.90
2022-11-28T17:23:07.168Z,99.90
2022-11-28T17:25:38.775Z,99.90
2022-11-28T17:28:10.382Z,99.90
2022-11-28T17:30:42.005Z,99.90
2022-11-28T17:33:14.919Z,99.90
2022-11-28T17:35:50.916Z,99.50
2022-11-28T17:38:22.551Z,99.00
2022-11-28T17:40:54.126Z,98.60
2022-11-28T17:52:34.849Z,97.40
2022-11-28T17:55:07.449Z,97.10
2022-11-28T17:57:39.338Z,96.80
2022-11-28T18:00:12.417Z,96.50
2022-11-28T18:05:30.905Z,96.00
2022-11-28T18:08:04.049Z,95.80
2022-11-28T18:10:35.837Z,95.70
2022-11-28T18:36:13.857Z,94.80
2022-11-28T18:38:46.233Z,94.70
2022-11-28T18:41:17.868Z,94.60
2022-11-28T18:46:35.975Z,94.40
2022-11-28T18:49:08.388Z,94.10
2022-11-28T18:51:41.431Z,94.10
2022-11-28T18:54:17.638Z,94.00
2022-11-28T18:56:52.577Z,94.00
2022-11-28T18:59:24.265Z,93.80
2022-11-28T19:01:55.957Z,93.80
2022-11-28T19:04:27.631Z,93.80
2022-11-28T19:07:01.507Z,93.80
2022-11-28T19:09:33.129Z,93.70
2022-11-28T19:28:09.122Z,93.70
2022-11-28T19:30:42.198Z,93.60
2022-11-28T19:33:13.940Z,93.50
2022-11-28T19:35:45.598Z,93.60
2022-11-28T19:38:17.203Z,93.50
2022-11-28T19:40:48.773Z,93.50
2022-11-28T19:43:20.453Z,93.30
2022-11-28T19:45:56.663Z,92.80
2022-11-28T19:48:28.816Z,92.40
2022-11-28T19:51:00.455Z,92.50
2022-11-28T19:53:32.702Z,92.80
2022-11-28T19:56:04.691Z,93.10
2022-11-28T19:58:36.677Z,93.50
2022-11-28T20:01:10.520Z,94.00
2022-11-28T20:03:42.678Z,94.40
2022-11-28T20:06:24.319Z,95.10
2022-11-28T20:08:57.982Z,95.50
2022-11-28T20:11:30.625Z,96.10
2022-11-28T20:14:03.087Z,96.70
2022-11-28T20:16:37.604Z,98.30
2022-11-28T20:19:09.700Z,99.90
2022-11-28T20:21:41.374Z,99.90
2022-11-28T20:24:13.023Z,99.90
2022-11-28T20:26:44.687Z,99.90
2022-11-28T20:29:17.104Z,99.90
2022-11-28T20:37:16.744Z,99.50
2022-11-28T20:39:48.395Z,99.00
2022-11-28T20:42:20.207Z,98.60
2022-11-28T20:44:52.931Z,98.10
2022-11-28T20:47:25.900Z,97.70
2022-11-28T20:49:57.549Z,97.30
2022-11-28T20:52:30.519Z,97.00
2022-11-28T20:55:02.193Z,96.70
2022-11-28T20:57:33.827Z,96.50
2022-11-28T21:00:06.224Z,96.20
2022-11-28T21:08:57.204Z,95.50
2022-11-28T21:11:56.330Z,95.20
2022-11-28T21:14:21.459Z,95.00
2022-11-28T21:16:53.309Z,94.80
2022-11-28T21:19:25.131Z,94.70
2022-11-28T21:21:56.840Z,94.40
2022-11-28T21:24:29.800Z,94.20
2022-11-28T21:27:01.422Z,94.10
2022-11-28T21:29:33.311Z,94.00
2022-11-28T21:43:14.290Z,93.40
2022-11-28T21:45:45.897Z,93.40
2022-11-28T21:48:17.539Z,93.20
2022-11-28T21:50:50.081Z,93.10
2022-11-28T21:53:21.805Z,93.00
2022-11-28T21:55:55.724Z,93.00
2022-11-28T21:58:28.922Z,93.00
2022-11-28T22:01:01.720Z,92.90
2022-11-28T22:03:33.820Z,92.80
2022-11-28T22:06:06.285Z,92.70
2022-11-28T22:08:37.987Z,92.60
2022-11-28T22:11:11.207Z,92.50
2022-11-28T22:13:47.607Z,92.50
2022-11-28T22:16:20.634Z,92.50
2022-11-28T22:18:53.390Z,92.40
2022-11-28T22:24:16.764Z,92.50
2022-11-28T22:26:48.406Z,92.50
2022-11-28T22:29:21.397Z,92.40
2022-11-28T22:31:53.711Z,92.30
2022-11-28T22:34:25.509Z,92.20
2022-11-28T22:36:57.137Z,92.20
2022-11-28T22:39:28.761Z,92.10
2022-11-28T22:42:00.541Z,92.20
2022-11-28T22:44:33.530Z,92.20
2022-11-28T22:47:05.377Z,92.20
2022-11-28T22:49:36.999Z,92.20
2022-11-28T22:52:08.742Z,92.20
2022-11-28T22:54:40.430Z,92.20
2022-11-28T22:57:12.020Z,92.10
2022-11-28T22:59:45.016Z,92.10
2022-11-28T23:02:16.712Z,92.10
2022-11-28T23:04:48.354Z,92.00
2022-11-28T23:07:20.022Z,92.00
2022-11-28T23:09:52.332Z,92.00
2022-11-28T23:12:24.058Z,91.90
2022-11-28T23:14:57.015Z,91.70
2022-11-28T23:17:28.612Z,91.40
2022-11-28T23:20:00.225Z,91.30
2022-11-28T23:22:32.374Z,91.40
2022-11-28T23:25:04.289Z,91.60
2022-11-28T23:27:35.884Z,92.00
2022-11-28T23:30:09.487Z,92.50
2022-11-28T23:32:41.082Z,92.90
2022-11-28T23:35:12.702Z,93.30
2022-11-28T23:37:44.307Z,93.80
2022-11-28T23:40:15.978Z,94.20
2022-11-28T23:42:47.578Z,94.70
2022-11-28T23:45:20.530Z,95.30
2022-11-28T23:47:52.565Z,95.80
2022-11-28T23:50:24.729Z,96.40
2022-11-28T23:52:56.357Z,97.00
2022-11-28T23:55:27.978Z,97.50
2022-11-28T23:57:59.694Z,98.00
